Friday, October 19, 2018, 3:31 PM GMT
Back to Local

CYQI, Yarmouth, N. S.

Location: , , Canada Lat: 43.833
Local Time: 3:31 PM GMT (15:31 GMT) Lon: -66.083
Time Zone: GMT Elev: 141 ft

Show me the last for .
Show Decoded

2018-10-19 15:00 METAR CYQI 191500Z 30014G19KT 15SM SCT036 BKN072 08/M02 A3014 RMK SC3AC2 SLP210
                 =
2018-10-19 14:00 METAR CYQI 191400Z 31013G22KT 15SM SCT038 OVC074 06/M02 A3014 RMK SC3AC5 SLP211
                 =
2018-10-19 13:00 METAR CYQI 191300Z 31015KT 15SM SCT037 OVC075 06/M03 A3015 RMK SC4AC4 SLP212 =
2018-10-19 12:00 METAR CYQI 191200Z 31012G19KT 15SM BKN043 BKN110 05/M04 A3014 RMK SC6AC1 SLP210
                 =
2018-10-19 11:00 METAR CYQI 191100Z 31010G20KT 15SM BKN045 BKN110 04/M04 A3013 RMK SC7AC1 AC TR
                 SLP206 =
2018-10-19 10:00 METAR CYQI 191000Z 31012G20KT 15SM BKN048 BKN100 04/M05 A3013 RMK SC5AC2 SLP207
                 =
2018-10-19 09:00 METAR CYQI 190900Z 32014G20KT 15SM BKN047 03/M06 A3014 RMK SC7 SLP208 =
2018-10-19 08:00 METAR CYQI 190800Z 31013G24KT 15SM BKN053 03/M07 A3013 RMK SC7 SLP206 =
2018-10-19 07:00 METAR CYQI 190700Z 32015KT 15SM BKN058 03/M07 A3013 RMK SC7 SLP207 =
2018-10-19 06:00 METAR CYQI 190600Z 32015G24KT 15SM BKN052 03/M08 A3012 RMK SC7 SLP204 =
2018-10-19 05:00 METAR CYQI 190500Z 33021G28KT 15SM BKN060 03/M09 A3012 RMK SC7 SLP202 =
2018-10-19 04:00 METAR CYQI 190400Z 33022G29KT 15SM BKN056 03/M08 A3010 RMK SC7 SLP197 =
2018-10-19 03:00 METAR CYQI 190300Z 32021G31KT 15SM BKN057 04/M08 A3010 RMK SC7 SLP195 =
2018-10-19 02:00 METAR CYQI 190200Z 32018G28KT 12SM BKN056 04/M07 A3009 RMK SC7 SLP194 =
2018-10-19 01:00 METAR CYQI 190100Z 33022G35KT 12SM SCT056 BKN080 04/M07 A3007 RMK SC4AC3 SLP185
                 =
2018-10-19 00:00 METAR CYQI 190000Z 31024G33KT 12SM -SHGS BKN056 OVC075 04/M07 A3005 RMK SC6AC2
                 CVCTV CLD EMBD SLP178 =
2018-10-18 23:00 METAR CYQI 182300Z 32022G34KT 12SM -SHSN BKN056 OVC082 05/M06 A3003 RMK SC6AC2
                 SLP171 =
2018-10-18 22:23 METAR CYQI 182223Z 30026G34KT 12SM -SHSN FEW016 BKN062 OVC080 04/M06 A3000 RMK
                 SC1SC6AC2 SC TR SLP162 =
2018-10-18 22:00 METAR CYQI 182200Z 32026G38KT 12SM -SHGS FEW016 BKN062 OVC080 05/M09 A2998 RMK
                 SC1SC7AC1 SC TR SLP155 =
2018-10-18 21:00 METAR CYQI 182100Z 33023G34KT 12SM -SHGS FEW021 BKN055 OVC090 04/M07 A2995 RMK
                 SC1SC6AC1 SLP143 =
2018-10-18 20:00 METAR CYQI 182000Z 32024G33KT 12SM -SHGS BKN053 OVC084 05/M07 A2991 RMK SC6AC2
                 SLP132 =
2018-10-18 19:00 METAR CYQI 181900Z 31021G38KT 12SM -SHGS BKN050 OVC080 05/M06 A2990 RMK SC7AC1
                 SLP126 =
2018-10-18 18:00 METAR CYQI 181800Z 32022G35KT 12SM -SHGS BKN047 OVC080 05/M05 A2988 RMK SC6AC2
                 SLP121 =
2018-10-18 17:00 METAR CYQI 181700Z 32027G36KT 12SM -SHGS BKN039 OVC068 05/M05 A2987 RMK SC6AC2
                 CVCTV CLD EMBD SLP118 =
2018-10-18 16:32 METAR CYQI 181632Z 32023G37KT 12SM BKN039 OVC073 05/M05 A2987 RMK SC6AC2 SLP117
                 =
2018-10-18 16:00 METAR CYQI 181600Z 32022G33KT 12SM -SHGS BKN038 BKN072 04/M04 A2987 RMK SC6AC1
                 SLP117 =

Support USWX by starting your Amazon purchase here.